EIKY/KIR METAR and TAF weather

Enter ICAO airport designator
Station Type Date Time Source
EIKY METAR 2022/01/29 13:30 UTC NOAA

EIKY 291330Z 30007KT 250V330 9999 FEW024 OVC033 11/06 Q1034


Station Type Date Time Source
EIKY Decoded METAR 2022/01/29 13:30 UTC NOAA

Station name not available
Jan 29, 2022 - 08:30 AM EST / 2022.01.29 1330 UTC
Wind: from the WNW (300 degrees) at 8 MPH (7 KT) (direction variable):0
Visibility: greater than 7 mile(s):0
Sky conditions: overcast
Temperature: 51 F (11 C)
Dew Point: 42 F (6 C)
Relative Humidity: 71%
Pressure (altimeter): 30.53 in. Hg (1034 hPa)
ob: EIKY 291330Z 30007KT 250V330 9999 FEW024 OVC033 11/06 Q1034
cycle: 13

Station Type Date Time Source
EIKY TAF UTC NOAA

Error!

Example: see airport list